This is the latest recevied weather packets stored in our database for station/object MKSRDG. If no packets are shown the sender has not sent any weather packets the latest 1 day(s).
| Time | Temp. | Humidity | Pressure | Rain* | Wind** | Luminosity | Snow |
|---|---|---|---|---|---|---|---|
| 1778037885 | 12.22° C | 89% | 1015 hPa | 0 mm | 0.45 m/s, 334° | 0 W/m² | - |
| 1778036985 | 12.78° C | 87% | 1014.8 hPa | 0 mm | 0.89 m/s, 333° | 12 W/m² | - |
| 1778036085 | 13.33° C | 85% | 1014.8 hPa | 0 mm | 0.89 m/s, 349° | 26 W/m² | - |
| 1778035185 | 14.44° C | 84% | 1014.7 hPa | 0 mm | 0.89 m/s, 344° | 58 W/m² | - |
| 1778034285 | 14.44° C | 84% | 1014.7 hPa | 0 mm | 1.34 m/s, 342° | 98 W/m² | - |
| 1778033385 | 15° C | 83% | 1014.6 hPa | 0 mm | 1.79 m/s, 322° | 151 W/m² | - |
| 1778032485 | 15° C | 83% | 1014.7 hPa | 0 mm | 0.89 m/s, 336° | 207 W/m² | - |
| 1778031585 | 15° C | 82% | 1014.6 hPa | 0 mm | 1.79 m/s, 336° | 279 W/m² | - |
| 1778030685 | 15° C | 83% | 1014.6 hPa | 0 mm | 1.34 m/s, 346° | 311 W/m² | - |
| 1778029785 | 15° C | 82% | 1014.5 hPa | 0 mm | 1.79 m/s, 347° | 371 W/m² | - |
| 1778028885 | 14.44° C | 85% | 1014.5 hPa | 0 mm | 1.79 m/s, 323° | 272 W/m² | - |
| 1778027985 | 14.44° C | 85% | 1014.5 hPa | 0 mm | 1.79 m/s, 342° | 230 W/m² | - |
| 1778027085 | 14.44° C | 85% | 1014.5 hPa | 0 mm | 2.68 m/s, 348° | 237 W/m² | - |
| 1778026185 | 14.44° C | 83% | 1014.5 hPa | 0 mm | 2.24 m/s, 345° | 218 W/m² | - |
| 1778025286 | 14.44° C | 83% | 1014.6 hPa | 0 mm | 2.24 m/s, 331° | 281 W/m² | - |
| 1778024386 | 14.44° C | 83% | 1014.7 hPa | 0 mm | 2.24 m/s, 338° | 323 W/m² | - |
| 1778023486 | 14.44° C | 84% | 1014.9 hPa | 0 mm | 1.34 m/s, 13° | 302 W/m² | - |
| 1778022586 | 14.44° C | 83% | 1014.9 hPa | 0 mm | 1.34 m/s, 345° | 285 W/m² | - |
| 1778021686 | 14.44° C | 83% | 1014.9 hPa | 0 mm | 2.24 m/s, 346° | 327 W/m² | - |
| 1778020786 | 14.44° C | 82% | 1015 hPa | 0 mm | 1.79 m/s, 309° | 390 W/m² | - |
| 1778019886 | 13.89° C | 84% | 1015.1 hPa | 0 mm | 2.24 m/s, 333° | 290 W/m² | - |
| 1778018986 | 13.89° C | 84% | 1015.1 hPa | 0 mm | 2.24 m/s, 308° | 318 W/m² | - |
| 1778018086 | 14.44° C | 84% | 1015.2 hPa | 0 mm | 1.79 m/s, 350° | 346 W/m² | - |
| 1778017186 | 13.89° C | 84% | 1015.2 hPa | 0 mm | 1.79 m/s, 27° | 315 W/m² | - |
| 1778016286 | 13.89° C | 85% | 1015.3 hPa | 0 mm | 2.24 m/s, 350° | 325 W/m² | - |
* Rain latest hour (hover to see other rain measurements)
** Current wind speed in m/s (hover to see current wind gust speed)